createdAt,value
2018-06-16T00:01:29.340Z,92.90
2018-06-16T00:03:57.619Z,93.00
2018-06-16T00:06:26.023Z,93.00
2018-06-16T00:08:54.304Z,93.00
2018-06-16T00:11:22.631Z,93.00
2018-06-16T00:13:51.012Z,92.90
2018-06-16T00:16:19.364Z,92.50
2018-06-16T00:18:47.765Z,92.60
2018-06-16T00:21:16.133Z,92.30
2018-06-16T00:23:44.451Z,92.80
2018-06-16T00:26:12.882Z,92.50
2018-06-16T00:28:41.361Z,92.70
2018-06-16T00:31:09.719Z,92.20
2018-06-16T00:33:38.069Z,91.00
2018-06-16T00:36:06.407Z,90.30
2018-06-16T00:38:34.754Z,89.00
2018-06-16T00:41:03.131Z,90.10
2018-06-16T00:43:31.474Z,90.10
2018-06-16T00:45:59.971Z,90.40
2018-06-16T00:48:28.310Z,90.80
2018-06-16T00:50:56.836Z,90.50
2018-06-16T00:53:25.195Z,90.30
2018-06-16T00:55:53.652Z,90.40
2018-06-16T00:58:21.969Z,90.90
2018-06-16T01:00:50.296Z,91.20
2018-06-16T01:03:18.891Z,91.40
2018-06-16T01:05:47.225Z,91.70
2018-06-16T01:08:15.575Z,92.10
2018-06-16T01:10:43.900Z,92.40
2018-06-16T01:13:12.249Z,92.30
2018-06-16T01:15:40.602Z,92.50
2018-06-16T01:18:09.011Z,93.10
2018-06-16T01:23:05.421Z,92.90
2018-06-16T01:25:33.777Z,93.20
2018-06-16T01:28:02.136Z,93.10
2018-06-16T01:30:30.511Z,93.30
2018-06-16T01:32:58.863Z,93.50
2018-06-16T01:35:27.203Z,93.70
2018-06-16T01:37:55.522Z,94.20
2018-06-16T01:40:23.849Z,93.70
2018-06-16T01:42:52.189Z,94.10
2018-06-16T01:45:20.662Z,93.10
2018-06-16T01:50:17.003Z,92.80
2018-06-16T01:52:45.404Z,93.20
2018-06-16T01:55:13.747Z,92.70
2018-06-16T01:57:42.136Z,92.90
2018-06-16T02:00:10.476Z,93.20
2018-06-16T02:02:38.821Z,93.40
2018-06-16T02:05:07.119Z,93.70
2018-06-16T02:07:35.422Z,93.70
2018-06-16T02:10:03.855Z,93.20
2018-06-16T02:12:32.204Z,93.30
2018-06-16T02:15:00.543Z,93.50
2018-06-16T02:17:28.871Z,93.20
2018-06-16T02:19:57.239Z,93.10
2018-06-16T02:22:25.513Z,92.80
2018-06-16T02:24:53.824Z,92.50
2018-06-16T02:27:22.174Z,92.40
2018-06-16T02:29:50.491Z,92.40
2018-06-16T02:32:18.819Z,92.20
2018-06-16T02:34:47.055Z,92.20
2018-06-16T02:37:15.362Z,91.80
2018-06-16T02:39:43.698Z,91.50
2018-06-16T02:42:12.107Z,91.30
2018-06-16T02:44:40.389Z,91.10
2018-06-16T02:47:08.693Z,91.00
2018-06-16T02:49:37.108Z,90.80
2018-06-16T02:52:05.816Z,90.70
2018-06-16T02:54:34.110Z,91.40
2018-06-16T02:57:02.517Z,91.80
2018-06-16T02:59:30.809Z,91.90
2018-06-16T03:01:59.066Z,92.40
2018-06-16T03:04:27.408Z,92.60
2018-06-16T03:06:55.725Z,92.90
2018-06-16T03:09:24.010Z,93.20
2018-06-16T03:11:52.324Z,93.40
2018-06-16T03:14:20.760Z,93.20
2018-06-16T03:16:49.074Z,93.20
2018-06-16T03:19:17.435Z,93.40
2018-06-16T03:21:45.731Z,93.60
2018-06-16T03:24:14.006Z,93.70
2018-06-16T03:26:42.393Z,94.40
2018-06-16T03:29:10.707Z,94.40
2018-06-16T03:31:39.031Z,94.30
2018-06-16T03:34:07.278Z,94.30
2018-06-16T03:36:35.620Z,93.40
2018-06-16T03:39:05.835Z,93.80
2018-06-16T03:41:34.153Z,93.70
2018-06-16T03:44:02.404Z,93.70
2018-06-16T03:46:30.683Z,93.00
2018-06-16T03:48:59.026Z,92.80
2018-06-16T03:51:27.267Z,92.80
2018-06-16T03:53:55.582Z,93.30
2018-06-16T03:56:23.895Z,93.40
2018-06-16T03:58:52.156Z,93.40
2018-06-16T04:01:20.492Z,92.90
2018-06-16T04:03:48.788Z,92.90
2018-06-16T04:06:17.076Z,92.80
2018-06-16T04:08:45.399Z,92.60
2018-06-16T04:11:13.675Z,92.80
2018-06-16T04:13:42.101Z,92.90
2018-06-16T04:16:10.460Z,93.30
2018-06-16T04:18:38.877Z,93.10
2018-06-16T04:21:07.287Z,94.00
2018-06-16T04:23:35.583Z,94.00
2018-06-16T04:26:03.935Z,94.00
2018-06-16T04:28:32.271Z,94.10
2018-06-16T04:31:00.671Z,93.60
2018-06-16T04:33:30.052Z,93.80
2018-06-16T04:35:58.503Z,93.90
2018-06-16T04:38:26.820Z,94.30
2018-06-16T04:40:55.127Z,94.10
2018-06-16T04:43:23.560Z,93.90
2018-06-16T04:45:51.944Z,94.00
2018-06-16T04:48:20.276Z,93.80
2018-06-16T04:50:48.952Z,94.20
2018-06-16T04:53:17.633Z,94.00
2018-06-16T04:55:45.944Z,93.20
2018-06-16T04:58:14.336Z,92.80
2018-06-16T05:00:42.833Z,92.70
2018-06-16T05:03:11.242Z,92.60
2018-06-16T05:05:39.579Z,92.50
2018-06-16T05:08:07.899Z,93.00
2018-06-16T05:10:36.232Z,93.00
2018-06-16T05:13:04.684Z,92.80
2018-06-16T05:15:32.966Z,92.20
2018-06-16T05:18:01.320Z,92.80
2018-06-16T05:20:29.615Z,92.30
2018-06-16T05:22:57.892Z,92.20
2018-06-16T05:25:26.211Z,92.00
2018-06-16T05:27:54.514Z,92.00
2018-06-16T05:30:23.083Z,92.70
2018-06-16T05:32:51.380Z,92.50
2018-06-16T05:35:19.702Z,93.10
2018-06-16T05:37:48.177Z,92.50
2018-06-16T05:40:16.454Z,93.20
2018-06-16T05:42:44.801Z,92.90
2018-06-16T05:45:13.116Z,92.40
2018-06-16T05:47:41.408Z,91.90
2018-06-16T05:50:09.716Z,91.80
2018-06-16T05:52:38.042Z,90.80
2018-06-16T05:55:06.380Z,91.00
2018-06-16T05:57:34.705Z,91.10
2018-06-16T06:00:03.084Z,89.20
2018-06-16T06:02:31.419Z,88.90
2018-06-16T06:04:59.683Z,89.60
2018-06-16T06:07:27.987Z,89.90
2018-06-16T06:09:56.834Z,88.20
2018-06-16T06:12:25.206Z,88.30
2018-06-16T06:14:53.682Z,88.10
2018-06-16T06:19:50.070Z,87.60
2018-06-16T06:22:18.379Z,88.30
2018-06-16T06:24:46.660Z,83.40
2018-06-16T06:27:15.076Z,80.90
2018-06-16T06:29:43.438Z,80.40
2018-06-16T06:32:11.791Z,78.50
2018-06-16T06:34:40.686Z,76.10
2018-06-16T06:37:09.295Z,75.10
2018-06-16T06:39:37.849Z,72.70
2018-06-16T06:42:06.167Z,71.30
2018-06-16T06:45:10.997Z,69.30
2018-06-16T06:48:09.940Z,68.90
2018-06-16T06:50:43.785Z,67.20
2018-06-16T06:53:12.390Z,65.80
2018-06-16T07:01:08.585Z,65.30
2018-06-16T07:03:37.373Z,64.90
2018-06-16T07:06:08.907Z,65.00
2018-06-16T07:08:42.929Z,65.20
2018-06-16T07:11:11.248Z,65.80
2018-06-16T07:13:39.585Z,66.70
2018-06-16T07:16:07.840Z,64.90
2018-06-16T07:18:36.139Z,67.40
2018-06-16T07:21:05.184Z,67.70
2018-06-16T07:23:33.701Z,67.70
2018-06-16T07:26:02.241Z,67.00
2018-06-16T07:28:31.471Z,67.40
2018-06-16T07:30:59.848Z,65.50
2018-06-16T07:33:28.329Z,68.00
2018-06-16T07:35:56.595Z,69.30
2018-06-16T07:40:53.252Z,69.50
2018-06-16T07:43:21.775Z,70.00
2018-06-16T07:45:58.080Z,71.00
2018-06-16T07:48:26.677Z,71.80
2018-06-16T07:53:23.261Z,69.80
2018-06-16T07:55:51.657Z,69.40
2018-06-16T07:58:20.725Z,69.00
2018-06-16T08:00:49.034Z,67.10
2018-06-16T08:03:17.675Z,64.20
2018-06-16T08:05:45.967Z,66.00
2018-06-16T08:08:14.698Z,65.50
2018-06-16T08:10:43.073Z,63.60
2018-06-16T08:13:11.354Z,62.00
2018-06-16T08:15:39.696Z,61.90
2018-06-16T08:18:08.438Z,62.50
2018-06-16T08:20:36.684Z,62.80
2018-06-16T08:23:04.936Z,60.70
2018-06-16T08:25:33.653Z,56.60
2018-06-16T08:28:02.168Z,57.70
2018-06-16T08:30:30.687Z,59.20
2018-06-16T08:32:59.172Z,57.80
2018-06-16T08:35:27.808Z,55.10
2018-06-16T08:37:56.339Z,56.30
2018-06-16T08:40:24.864Z,55.30
2018-06-16T08:42:53.416Z,54.60
2018-06-16T08:45:21.905Z,54.50
2018-06-16T08:47:50.502Z,55.30
2018-06-16T08:50:19.090Z,53.90
2018-06-16T08:52:47.633Z,50.60
2018-06-16T08:55:16.207Z,53.30
2018-06-16T08:57:44.740Z,54.50
2018-06-16T09:00:13.239Z,54.00
2018-06-16T09:02:41.595Z,53.40
2018-06-16T09:05:09.872Z,53.40
2018-06-16T09:07:38.264Z,54.10
2018-06-16T09:10:06.617Z,51.40
2018-06-16T09:12:34.944Z,52.60
2018-06-16T09:15:03.377Z,51.70
2018-06-16T09:17:31.796Z,50.80
2018-06-16T09:20:00.145Z,50.30
2018-06-16T09:22:28.466Z,51.90
2018-06-16T09:24:56.904Z,52.30
2018-06-16T09:27:25.437Z,52.40
2018-06-16T09:29:53.828Z,52.50
2018-06-16T09:32:22.209Z,51.80
2018-06-16T09:34:50.615Z,53.00
2018-06-16T09:37:18.911Z,51.00
2018-06-16T09:39:48.457Z,52.60
2018-06-16T09:42:16.883Z,51.80
2018-06-16T09:44:45.379Z,51.70
2018-06-16T09:47:13.780Z,52.60
2018-06-16T09:49:42.284Z,50.20
2018-06-16T09:52:10.720Z,48.80
2018-06-16T09:54:39.045Z,47.50
2018-06-16T09:57:07.402Z,44.60
2018-06-16T09:59:35.724Z,46.70
2018-06-16T10:02:03.981Z,48.90
2018-06-16T10:04:32.473Z,47.10
2018-06-16T10:07:00.998Z,48.10
2018-06-16T10:09:29.346Z,45.40
2018-06-16T10:11:57.517Z,48.10
2018-06-16T10:14:26.088Z,46.30
2018-06-16T10:16:54.297Z,47.60
2018-06-16T10:19:22.566Z,46.10
2018-06-16T10:21:50.795Z,46.10
2018-06-16T10:24:19.016Z,45.80
2018-06-16T10:26:47.284Z,47.90
2018-06-16T10:29:15.694Z,44.20
2018-06-16T10:31:43.932Z,45.00
2018-06-16T10:34:12.169Z,46.50
2018-06-16T10:36:40.860Z,44.90
2018-06-16T10:39:09.680Z,46.10
2018-06-16T10:41:38.493Z,45.60
2018-06-16T10:44:07.008Z,42.00
2018-06-16T10:46:35.340Z,44.40
2018-06-16T10:49:03.614Z,42.20
2018-06-16T10:51:31.847Z,45.90
2018-06-16T10:54:00.062Z,40.80
2018-06-16T10:56:28.492Z,41.10
2018-06-16T10:58:56.916Z,41.60
2018-06-16T11:01:25.413Z,43.00
2018-06-16T11:03:53.865Z,43.30
2018-06-16T11:06:22.271Z,43.60
2018-06-16T11:08:50.498Z,44.10
2018-06-16T11:11:18.743Z,45.30
2018-06-16T11:13:46.971Z,44.40
2018-06-16T11:16:15.584Z,46.80
2018-06-16T11:18:43.921Z,46.40
2018-06-16T11:21:12.215Z,45.90
2018-06-16T11:23:40.436Z,46.10
2018-06-16T11:26:10.983Z,45.90
2018-06-16T11:31:07.196Z,45.70
2018-06-16T11:33:35.415Z,44.80
2018-06-16T11:36:03.794Z,45.60
2018-06-16T11:38:32.180Z,47.20
2018-06-16T11:41:02.727Z,46.20
2018-06-16T11:43:31.011Z,45.20
2018-06-16T11:45:59.216Z,44.70
2018-06-16T11:48:27.501Z,46.80
2018-06-16T11:50:55.801Z,47.00
2018-06-16T11:53:24.015Z,47.20
2018-06-16T11:55:52.222Z,47.10
2018-06-16T11:58:20.427Z,48.60
2018-06-16T12:00:48.908Z,48.50
2018-06-16T12:03:17.202Z,47.80
2018-06-16T12:05:45.416Z,46.80
2018-06-16T12:08:13.655Z,49.10
2018-06-16T12:10:42.127Z,47.40
2018-06-16T12:13:10.721Z,47.00
2018-06-16T12:15:39.118Z,46.50
2018-06-16T12:18:07.797Z,44.50
2018-06-16T12:20:36.064Z,47.30
2018-06-16T12:23:04.315Z,48.20
2018-06-16T12:25:32.560Z,47.10
2018-06-16T12:28:00.856Z,47.40
2018-06-16T12:30:29.093Z,48.00
2018-06-16T12:32:57.314Z,45.60
2018-06-16T12:35:25.590Z,47.50
2018-06-16T12:40:21.871Z,45.20
2018-06-16T12:42:50.224Z,45.90
2018-06-16T12:45:18.762Z,46.40
2018-06-16T12:47:47.051Z,47.20
2018-06-16T12:50:15.414Z,47.60
2018-06-16T12:52:43.755Z,45.20
2018-06-16T12:55:11.997Z,47.00
2018-06-16T12:57:40.303Z,49.00
2018-06-16T13:00:08.476Z,47.30
2018-06-16T13:02:36.925Z,47.00
2018-06-16T13:05:05.374Z,46.30
2018-06-16T13:07:33.680Z,46.40
2018-06-16T13:10:01.976Z,45.70
2018-06-16T13:12:30.272Z,47.40
2018-06-16T13:14:58.554Z,46.10
2018-06-16T13:17:26.795Z,45.00
2018-06-16T13:19:55.101Z,48.20
2018-06-16T13:24:51.594Z,46.70
2018-06-16T13:27:20.051Z,48.00
2018-06-16T13:29:48.496Z,49.40
2018-06-16T13:32:16.863Z,46.40
2018-06-16T13:34:45.221Z,49.20
2018-06-16T13:37:14.017Z,46.50
2018-06-16T13:39:42.615Z,46.50
2018-06-16T13:42:11.099Z,46.60
2018-06-16T13:44:39.728Z,46.60
2018-06-16T13:47:08.144Z,46.90
2018-06-16T13:49:36.470Z,45.60
2018-06-16T13:52:05.027Z,48.20
2018-06-16T13:54:33.468Z,46.20
2018-06-16T13:57:01.851Z,45.80
2018-06-16T13:59:30.137Z,46.20
2018-06-16T14:01:58.888Z,45.40
2018-06-16T14:04:27.476Z,47.10
2018-06-16T14:06:56.786Z,46.70
2018-06-16T14:09:25.112Z,46.10
2018-06-16T14:11:55.644Z,47.40
2018-06-16T14:14:25.460Z,48.20
2018-06-16T14:16:53.900Z,47.90
2018-06-16T14:19:24.514Z,47.20
2018-06-16T14:21:53.038Z,48.20
2018-06-16T14:24:21.582Z,48.80
2018-06-16T14:26:50.132Z,48.50
2018-06-16T14:29:19.319Z,47.20
2018-06-16T14:31:47.796Z,46.50
2018-06-16T14:34:16.259Z,48.00
2018-06-16T14:36:44.651Z,45.90
2018-06-16T14:39:12.917Z,46.30
2018-06-16T14:41:41.572Z,46.80
2018-06-16T14:44:09.858Z,47.20
2018-06-16T14:46:38.156Z,47.50
2018-06-16T14:49:06.626Z,47.90
2018-06-16T14:51:34.983Z,49.10
2018-06-16T14:54:03.400Z,47.70
2018-06-16T14:56:31.735Z,48.20
2018-06-16T14:59:00.189Z,47.10
2018-06-16T15:03:57.460Z,48.60
2018-06-16T15:06:25.904Z,48.20
2018-06-16T15:08:54.235Z,48.70
2018-06-16T15:11:22.559Z,49.00
2018-06-16T15:13:50.776Z,48.30
2018-06-16T15:16:21.379Z,49.00
2018-06-16T15:18:49.631Z,49.20
2018-06-16T15:21:18.272Z,50.70
2018-06-16T15:23:46.620Z,49.50
2018-06-16T15:26:14.955Z,50.50
2018-06-16T15:28:43.536Z,49.30
2018-06-16T15:31:11.951Z,49.90
2018-06-16T15:33:40.316Z,50.30
2018-06-16T15:36:08.770Z,50.40
2018-06-16T15:38:37.071Z,50.20
2018-06-16T15:41:05.371Z,49.30
2018-06-16T15:43:33.718Z,50.20
2018-06-16T15:46:02.384Z,49.30
2018-06-16T15:48:30.758Z,48.20
2018-06-16T15:50:59.111Z,50.40
2018-06-16T15:55:56.335Z,49.60
2018-06-16T15:58:24.619Z,48.70
2018-06-16T16:00:53.170Z,48.50
2018-06-16T16:03:21.503Z,50.10
2018-06-16T16:05:50.354Z,48.10
2018-06-16T16:08:18.601Z,48.40
2018-06-16T16:10:47.010Z,48.80
2018-06-16T16:13:15.624Z,49.90
2018-06-16T16:15:44.009Z,49.70
2018-06-16T16:18:12.691Z,49.80
2018-06-16T16:20:41.047Z,49.20
2018-06-16T16:23:09.414Z,48.90
2018-06-16T16:25:37.788Z,49.00
2018-06-16T16:28:06.112Z,49.70
2018-06-16T16:30:34.413Z,48.90
2018-06-16T16:37:58.796Z,47.80
2018-06-16T16:40:27.138Z,47.50
2018-06-16T16:42:55.486Z,47.20
2018-06-16T16:47:51.971Z,49.10
2018-06-16T16:50:20.359Z,48.70
2018-06-16T16:52:48.700Z,48.70
2018-06-16T16:57:45.108Z,48.30
2018-06-16T17:00:13.487Z,47.70
2018-06-16T17:02:45.022Z,49.00
2018-06-16T17:05:13.340Z,48.80
2018-06-16T17:10:09.874Z,48.60
2018-06-16T17:12:38.236Z,49.30
2018-06-16T17:15:07.756Z,49.30
2018-06-16T17:17:36.214Z,49.00
2018-06-16T17:20:04.601Z,48.30
2018-06-16T17:22:32.927Z,48.00
2018-06-16T17:25:01.328Z,46.90
2018-06-16T17:27:29.699Z,47.10
2018-06-16T17:29:58.141Z,47.80
2018-06-16T17:32:26.525Z,48.30
2018-06-16T17:34:54.849Z,49.40
2018-06-16T17:37:23.221Z,50.50
2018-06-16T17:39:51.555Z,50.70
2018-06-16T17:42:19.916Z,49.00
2018-06-16T17:44:48.254Z,49.70
2018-06-16T17:47:16.605Z,50.00
2018-06-16T17:49:44.948Z,50.60
2018-06-16T17:52:13.261Z,51.20
2018-06-16T17:54:41.667Z,51.80
2018-06-16T17:57:10.040Z,51.30
2018-06-16T17:59:38.456Z,50.20
2018-06-16T18:02:06.960Z,50.70
2018-06-16T18:04:35.320Z,51.50
2018-06-16T18:07:03.778Z,51.60
2018-06-16T18:09:32.159Z,52.60
2018-06-16T18:12:00.512Z,53.60
2018-06-16T18:14:28.948Z,54.40
2018-06-16T18:16:57.272Z,55.20
2018-06-16T18:19:25.682Z,56.40
2018-06-16T18:21:54.071Z,57.80
2018-06-16T18:24:22.464Z,57.70
2018-06-16T18:26:50.868Z,57.80
2018-06-16T18:31:47.248Z,59.40
2018-06-16T18:34:15.605Z,59.40
2018-06-16T18:36:43.906Z,60.20
2018-06-16T18:39:12.223Z,62.30
2018-06-16T18:41:40.628Z,62.60
2018-06-16T18:44:09.012Z,65.40
2018-06-16T18:46:37.336Z,64.30
2018-06-16T18:49:05.691Z,64.80
2018-06-16T18:51:34.004Z,64.50
2018-06-16T18:54:02.313Z,64.80
2018-06-16T18:56:30.720Z,65.40
2018-06-16T18:58:59.084Z,66.60
2018-06-16T19:01:27.443Z,62.30
2018-06-16T19:03:55.728Z,62.00
2018-06-16T19:06:24.181Z,62.10
2018-06-16T19:08:52.498Z,62.30
2018-06-16T19:11:20.778Z,63.00
2018-06-16T19:13:49.061Z,63.30
2018-06-16T19:16:17.571Z,63.60
2018-06-16T19:18:45.908Z,63.10
2018-06-16T19:21:14.258Z,63.40
2018-06-16T19:23:42.599Z,63.50
2018-06-16T19:26:10.903Z,63.60
2018-06-16T19:28:39.204Z,64.10
2018-06-16T19:31:07.535Z,64.30
2018-06-16T19:33:35.860Z,64.50
2018-06-16T19:36:04.163Z,64.80
2018-06-16T19:38:33.292Z,65.10
2018-06-16T19:41:01.654Z,66.40
2018-06-16T19:43:30.150Z,65.40
2018-06-16T19:45:58.424Z,65.70
2018-06-16T19:48:26.723Z,66.30
2018-06-16T19:50:55.051Z,66.40
2018-06-16T19:53:23.335Z,66.40
2018-06-16T19:55:51.648Z,66.10
2018-06-16T19:58:20.043Z,66.20
2018-06-16T20:00:48.392Z,66.30
2018-06-16T20:03:16.766Z,66.80
2018-06-16T20:05:45.116Z,67.10
2018-06-16T20:08:13.470Z,67.10
2018-06-16T20:10:41.884Z,67.60
2018-06-16T20:13:10.272Z,68.10
2018-06-16T20:15:38.706Z,68.20
2018-06-16T20:18:07.167Z,67.90
2018-06-16T20:20:35.520Z,67.80
2018-06-16T20:23:03.870Z,68.30
2018-06-16T20:25:32.150Z,68.10
2018-06-16T20:28:00.508Z,68.20
2018-06-16T20:30:28.912Z,69.10
2018-06-16T20:32:57.261Z,69.70
2018-06-16T20:35:25.676Z,69.60
2018-06-16T20:37:54.085Z,70.40
2018-06-16T20:40:22.466Z,70.00
2018-06-16T20:42:50.838Z,70.00
2018-06-16T20:45:19.128Z,70.90
2018-06-16T20:47:47.543Z,71.90
2018-06-16T20:50:15.852Z,69.70
2018-06-16T20:52:44.797Z,69.80
2018-06-16T20:55:13.106Z,69.50
2018-06-16T20:57:41.496Z,70.10
2018-06-16T21:00:09.859Z,69.80
2018-06-16T21:02:38.225Z,69.70
2018-06-16T21:05:06.638Z,69.60
2018-06-16T21:07:35.004Z,70.10
2018-06-16T21:10:03.368Z,70.10
2018-06-16T21:14:59.599Z,68.20
2018-06-16T21:17:27.860Z,68.80
2018-06-16T21:19:56.207Z,71.80
2018-06-16T21:22:24.501Z,73.40
2018-06-16T21:24:52.933Z,73.60
2018-06-16T21:27:21.177Z,75.60
2018-06-16T21:29:49.466Z,75.70
2018-06-16T21:32:17.789Z,72.20
2018-06-16T21:34:46.111Z,72.30
2018-06-16T21:37:14.403Z,71.50
2018-06-16T21:39:42.716Z,72.30
2018-06-16T21:42:11.037Z,71.20
2018-06-16T21:44:39.356Z,71.50
2018-06-16T21:47:07.665Z,72.70
2018-06-16T21:49:35.973Z,74.20
2018-06-16T21:52:04.318Z,75.00
2018-06-16T21:54:32.569Z,76.70
2018-06-16T21:57:00.817Z,78.10
2018-06-16T21:59:29.091Z,78.50
2018-06-16T22:01:57.379Z,79.70
2018-06-16T22:04:25.692Z,79.50
2018-06-16T22:06:53.895Z,79.90
2018-06-16T22:09:22.157Z,76.60
2018-06-16T22:11:50.442Z,76.10
2018-06-16T22:14:18.735Z,75.90
2018-06-16T22:16:47.077Z,76.00
2018-06-16T22:19:15.375Z,76.30
2018-06-16T22:21:43.704Z,77.20
2018-06-16T22:24:11.976Z,77.10
2018-06-16T22:26:40.371Z,77.30
2018-06-16T22:29:08.665Z,77.10
2018-06-16T22:31:36.939Z,77.80
2018-06-16T22:34:05.253Z,77.40
2018-06-16T22:36:33.588Z,77.60
2018-06-16T22:39:01.905Z,77.80
2018-06-16T22:41:30.206Z,78.00
2018-06-16T22:43:58.463Z,77.80
2018-06-16T22:46:26.755Z,78.30
2018-06-16T22:48:55.090Z,78.60
2018-06-16T22:51:23.353Z,78.80
2018-06-16T22:53:51.659Z,79.60
2018-06-16T22:56:20.010Z,80.20
2018-06-16T22:58:48.284Z,80.60
2018-06-16T23:01:16.703Z,80.90
2018-06-16T23:03:44.980Z,81.20
2018-06-16T23:06:13.260Z,81.30
2018-06-16T23:08:41.529Z,81.20
2018-06-16T23:11:09.843Z,82.10
2018-06-16T23:13:38.106Z,82.60
2018-06-16T23:16:06.435Z,82.30
2018-06-16T23:18:34.704Z,82.50
2018-06-16T23:21:03.068Z,82.70
2018-06-16T23:23:31.360Z,83.30
2018-06-16T23:25:59.651Z,84.70
2018-06-16T23:28:27.925Z,85.00
2018-06-16T23:30:56.265Z,84.40
2018-06-16T23:33:24.642Z,85.00
2018-06-16T23:35:53.054Z,85.00
2018-06-16T23:38:21.345Z,85.00
2018-06-16T23:40:49.675Z,85.60
2018-06-16T23:43:17.959Z,86.40
2018-06-16T23:45:46.249Z,85.80
2018-06-16T23:48:14.536Z,84.70
2018-06-16T23:50:42.832Z,86.30
2018-06-16T23:53:11.162Z,86.60
2018-06-16T23:55:39.449Z,87.30
2018-06-16T23:58:07.752Z,87.00
